CheckWX is a tool to help pilots better visualize weather data.  It is not intended as a substitute for an official pre-flight weather briefing.

15:12:51 UTC

KSFB METAR
Orlando Sanford International Airport
Orlando, Florida, USA
Current

20 mins ago

KSFB 261453Z 18005KT 10SM CLR 29/22 A3017 RMK AO2 SLP215 T02890217 50000
Observed
May-26 @ 14:53 UTC
Wind
  • 180° at 5 KTS
Visibility
10 SM
Flight Rules
VFR
Cloud Levels
  • Clear skies
Temperature
29°C / 84°F
Dewpoint
22°C / 72°F
Heat Index
32°C / 89°F
Humidity
66%
Altimeter
30.17" Hg
Pressure
1021.72 hPa
Previous

1 hour ago

KSFB 261353Z VRB03KT 10SM CLR 28/22 A3018 RMK AO2 SLP218 T02780217
Observed
May-26 @ 13:53 UTC
Wind
  • Variable at 3 KTS
Visibility
10 SM
Flight Rules
VFR
Cloud Levels
  • Clear skies
Temperature
28°C / 82°F
Dewpoint
22°C / 72°F
Heat Index
30°C / 86°F
Humidity
70%
Altimeter
30.18" Hg
Pressure
1022.02 hPa
Previous

2 hours ago

KSFB 261253Z VRB04KT 10SM CLR 26/22 A3018 RMK AO2 SLP218 T02610222
Observed
May-26 @ 12:53 UTC
Wind
  • Variable at 4 KTS
Visibility
10 SM
Flight Rules
VFR
Cloud Levels
  • Clear skies
Temperature
26°C / 79°F
Dewpoint
22°C / 72°F
Humidity
79%
Altimeter
30.18" Hg
Pressure
1022.02 hPa